This is the latest recevied weather packets stored in our database for station/object KM7BEO. If no packets are shown the sender has not sent any weather packets the latest 10 day(s).
| Time | Temp. | Humidity | Pressure | Rain* | Wind** | Luminosity | Snow |
|---|---|---|---|---|---|---|---|
| 1777678675 | 16.11° C | 70% | 1014.9 hPa | 0 mm | - | 144 W/m² | - |
| 1777678373 | 16.67° C | 67% | 1014.7 hPa | 0 mm | - | 151 W/m² | - |
| 1777678068 | 17.22° C | 63% | 1014.8 hPa | 0 mm | - | 484 W/m² | - |
| 1777677765 | 16.67° C | 66% | 1014.9 hPa | 0 mm | - | 494 W/m² | - |
| 1777677463 | 17.22° C | 66% | 1014.8 hPa | 0 mm | - | 496 W/m² | - |
| 1777677161 | 16.67° C | 66% | 1015 hPa | 0 mm | - | 337 W/m² | - |
| 1777676859 | 17.22° C | 62% | 1015.1 hPa | 0 mm | - | 432 W/m² | - |
| 1777676557 | 17.22° C | 64% | 1015.1 hPa | 0 mm | - | 169 W/m² | - |
| 1777676255 | 17.22° C | 64% | 1015.2 hPa | 0 mm | - | 510 W/m² | - |
| 1777675952 | 16.67° C | 68% | 1015 hPa | 0 mm | - | 508 W/m² | - |
| 1777675648 | 16.11° C | 69% | 1015.2 hPa | 0 mm | - | 196 W/m² | - |
| 1777675346 | 16.11° C | 69% | 1015.3 hPa | 0 mm | - | 173 W/m² | - |
| 1777675041 | 16.11° C | 70% | 1015.3 hPa | 0 mm | - | 274 W/m² | - |
| 1777674738 | 16.67° C | 68% | 1015.4 hPa | 0 mm | - | 213 W/m² | - |
| 1777674435 | 16.67° C | 69% | 1015.5 hPa | 0 mm | - | 139 W/m² | - |
| 1777674132 | 16.67° C | 69% | 1015.4 hPa | 0 mm | - | 141 W/m² | - |
| 1777673828 | 16.11° C | 71% | 1015.5 hPa | 0 mm | - | 175 W/m² | - |
| 1777673525 | 16.11° C | 72% | 1015.5 hPa | 0 mm | - | 201 W/m² | - |
| 1777673223 | 15.56° C | 72% | 1015.4 hPa | 0 mm | - | 202 W/m² | - |
| 1777672920 | 16.11° C | 71% | 1015.7 hPa | 0 mm | - | 154 W/m² | - |
| 1777672617 | 16.11° C | 73% | 1015.4 hPa | 0 mm | - | 183 W/m² | - |
| 1777672312 | 15.56° C | 72% | 1015.7 hPa | 0 mm | - | 106 W/m² | - |
| 1777672007 | 15.56° C | 74% | 1015.7 hPa | 0 mm | - | 97 W/m² | - |
| 1777671703 | 15° C | 77% | 1015.7 hPa | 0 mm | - | 97 W/m² | - |
| 1777671400 | 15° C | 77% | 1015.8 hPa | 0 mm | - | 107 W/m² | - |
* Rain latest hour (hover to see other rain measurements)
** Current wind speed in m/s (hover to see current wind gust speed)